地図

経路データ

SID SEASON NUMBER BASIN SUBBASIN NAME ISO_TIME NATURE LAT LON WMO_WIND WMO_PRES WMO_AGENCY TRACK_TYPE DIST2LAND LANDFALL IFLAG USA_AGENCY USA_ATCF_ID USA_LAT USA_LON USA_RECORD USA_STATUS USA_WIND USA_PRES USA_SSHS USA_R34_NE USA_R34_SE USA_R34_SW USA_R34_NW USA_R50_NE USA_R50_SE USA_R50_SW USA_R50_NW USA_R64_NE USA_R64_SE USA_R64_SW USA_R64_NW USA_POCI USA_ROCI USA_RMW USA_EYE TOKYO_LAT TOKYO_LON TOKYO_GRADE TOKYO_WIND TOKYO_PRES TOKYO_R50_DIR TOKYO_R50_LONG TOKYO_R50_SHORT TOKYO_R30_DIR TOKYO_R30_LONG TOKYO_R30_SHORT TOKYO_LAND CMA_LAT CMA_LON CMA_CAT CMA_WIND CMA_PRES HKO_LAT HKO_LON HKO_CAT HKO_WIND HKO_PRES NEWDELHI_LAT NEWDELHI_LON NEWDELHI_GRADE NEWDELHI_WIND NEWDELHI_PRES NEWDELHI_CI NEWDELHI_DP NEWDELHI_POCI REUNION_LAT REUNION_LON REUNION_TYPE REUNION_WIND REUNION_PRES REUNION_TNUM REUNION_CI REUNION_RMW REUNION_R34_NE REUNION_R34_SE REUNION_R34_SW REUNION_R34_NW REUNION_R50_NE REUNION_R50_SE REUNION_R50_SW REUNION_R50_NW REUNION_R64_NE REUNION_R64_SE REUNION_R64_SW REUNION_R64_NW BOM_LAT BOM_LON BOM_TYPE BOM_WIND BOM_PRES BOM_TNUM BOM_CI BOM_RMW BOM_R34_NE BOM_R34_SE BOM_R34_SW BOM_R34_NW BOM_R50_NE BOM_R50_SE BOM_R50_SW BOM_R50_NW BOM_R64_NE BOM_R64_SE BOM_R64_SW BOM_R64_NW BOM_ROCI BOM_POCI BOM_EYE BOM_POS_METHOD BOM_PRES_METHOD NADI_LAT NADI_LON NADI_CAT NADI_WIND NADI_PRES WELLINGTON_LAT WELLINGTON_LON WELLINGTON_WIND WELLINGTON_PRES DS824_LAT DS824_LON DS824_STAGE DS824_WIND DS824_PRES TD9636_LAT TD9636_LON TD9636_STAGE TD9636_WIND TD9636_PRES TD9635_LAT TD9635_LON TD9635_WIND TD9635_PRES TD9635_ROCI NEUMANN_LAT NEUMANN_LON NEUMANN_CLASS NEUMANN_WIND NEUMANN_PRES MLC_LAT MLC_LON MLC_CLASS MLC_WIND MLC_PRES USA_GUST BOM_GUST BOM_GUST_PER REUNION_GUST REUNION_GUST_PER USA_SEAHGT USA_SEARAD_NE USA_SEARAD_SE USA_SEARAD_SW USA_SEARAD_NW STORM_SPEED STORM_DIR
1948011S20157 1948 4 SP EA NOT_NAMED 1948-01-10 12:00:00 TS -20.0000 157.400 bom main 682 668 O_____O__OO___ jtwc_sh SH031948 -20.0000 157.400 -1 -20.0000 157.400 -20.0000 157.400 TC -20.0000 157.400 1 5 90
1948011S20157 1948 4 SP EA NOT_NAMED 1948-01-10 15:00:00 TS -20.0018 157.655 main 658 637 P_____P__PP___ SH031948 -19.9976 157.668 -1 -19.9976 157.668 -19.9976 157.668 TC -20.0143 157.619 1 5 91
1948011S20157 1948 4 SP EA NOT_NAMED 1948-01-10 18:00:00 TS -20.0057 157.882 bom main 637 616 O_____O__OP___ jtwc_sh SH031948 -20.0000 157.900 -1 -20.0000 157.900 -20.0000 157.900 TC -20.0228 157.830 1 4 91
1948011S20157 1948 4 SP EA NOT_NAMED 1948-01-10 21:00:00 TS -20.0106 158.061 main 616 606 P_____P__PP___ SH031948 -20.0075 158.072 -1 -20.0075 158.072 -20.0075 158.072 TC -20.0199 158.026 1 3 89
1948011S20157 1948 4 SP EA NOT_NAMED 1948-01-11 00:00:00 TS -20.0000 158.200 bom main 606 595 O_____O__OO___ jtwc_sh SH031948 -20.0000 158.200 -1 -20.0000 158.200 -20.0000 158.200 TC -20.0000 158.200 1 2 77
1948011S20157 1948 4 SP EA NOT_NAMED 1948-01-11 03:00:00 TS -19.9581 158.312 main 595 586 P_____P__PP___ SH031948 -19.9575 158.300 -1 -19.9575 158.300 -19.9575 158.300 TC -19.9602 158.347 1 2 64
1948011S20157 1948 4 SP EA NOT_NAMED 1948-01-11 06:00:00 TS -19.9018 158.418 bom main 586 566 O_____O__OP___ jtwc_sh SH031948 -19.9000 158.400 -1 -19.9000 158.400 -19.9000 158.400 TC -19.9074 158.473 1 3 64
1948011S20157 1948 4 SP EA NOT_NAMED 1948-01-11 09:00:00 TS -19.8446 158.559 main 566 556 P_____P__PP___ SH031948 -19.8425 158.550 -1 -19.8425 158.550 -19.8425 158.550 TC -19.8508 158.587 1 3 69
1948011S20157 1948 4 SP EA NOT_NAMED 1948-01-11 12:00:00 TS -19.8000 158.700 bom main 556 545 O_____O__OO___ jtwc_sh SH031948 -19.8000 158.700 -1 -19.8000 158.700 -19.8000 158.700 TC -19.8000 158.700 1 2 78
1948011S20157 1948 4 SP EA NOT_NAMED 1948-01-11 15:00:00 TS -19.7929 158.808 main 545 535 P_____P__PP___ SH031948 -19.8000 158.800 -1 -19.8000 158.800 -19.8000 158.800 TC -19.7719 158.833 1 2 86
1948011S20157 1948 4 SP EA NOT_NAMED 1948-01-11 18:00:00 TS -19.7875 158.916 bom main 535 514 O_____O__OP___ jtwc_sh SH031948 -19.8000 158.900 -1 -19.8000 158.900 -19.8000 158.900 TC -19.7500 158.965 1 2 80
1948011S20157 1948 4 SP EA NOT_NAMED 1948-01-11 21:00:00 TS -19.7502 159.060 main 514 505 P_____P__PP___ SH031948 -19.7575 159.050 -1 -19.7575 159.050 -19.7575 159.050 TC -19.7281 159.089 1 3 72
1948011S20157 1948 4 SP EA NOT_NAMED 1948-01-12 00:00:00 TS -19.7000 159.200 bom main 505 495 O_____O__OO___ jtwc_sh SH031948 -19.7000 159.200 -1 -19.7000 159.200 -19.7000 159.200 TC -19.7000 159.200 1 3 67
1948011S20157 1948 4 SP EA NOT_NAMED 1948-01-12 03:00:00 TS -19.6518 159.307 main 495 487 P_____P__PP___ SH031948 -19.6500 159.315 -1 -19.6500 159.315 -19.6500 159.315 TC -19.6571 159.281 1 2 61
1948011S20157 1948 4 SP EA NOT_NAMED 1948-01-12 06:00:00 TS -19.6019 159.387 bom main 487 487 O_____O__OP___ jtwc_sh SH031948 -19.6000 159.400 -1 -19.6000 159.400 -19.6000 159.400 TC -19.6074 159.350 1 2 50
1948011S20157 1948 4 SP EA NOT_NAMED 1948-01-12 09:00:00 TS -19.5510 159.442 main 487 478 P_____P__PP___ SH031948 -19.5500 159.450 -1 -19.5500 159.450 -19.5500 159.450 TC -19.5540 159.419 1 1 47
1948011S20157 1948 4 SP EA NOT_NAMED 1948-01-12 12:00:00 TS -19.5000 159.500 bom main 478 468 O_____O__OO___ jtwc_sh SH031948 -19.5000 159.500 -1 -19.5000 159.500 -19.5000 159.500 TC -19.5000 159.500 1 2 55
1948011S20157 1948 4 SP EA NOT_NAMED 1948-01-12 15:00:00 TS -19.4611 159.581 main 468 460 P_____P__PP___ SH031948 -19.4500 159.585 -1 -19.4500 159.585 -19.4500 159.585 TC -19.4944 159.569 1 2 66
1948011S20157 1948 4 SP EA NOT_NAMED 1948-01-12 18:00:00 TS -19.4205 159.690 bom main 460 450 O_____O__OP___ jtwc_sh SH031948 -19.4000 159.700 -1 -19.4000 159.700 -19.4000 159.700 TC -19.4820 159.659 1 2 73
1948011S20157 1948 4 SP EA NOT_NAMED 1948-01-12 21:00:00 TS -19.3921 159.813 main 450 433 P_____P__PP___ SH031948 -19.3799 159.820 -1 -19.3799 159.820 -19.3799 159.820 TC -19.4286 159.794 1 3 68
1948011S20157 1948 4 SP MM NOT_NAMED 1948-01-13 00:00:00 TS -19.3000 160.000 bom main 433 416 O_____O__OO___ jtwc_sh SH031948 -19.3000 160.000 -1 -19.3000 160.000 -19.3000 160.000 TC -19.3000 160.000 1 5 54
1948011S20157 1948 4 SP MM NOT_NAMED 1948-01-13 03:00:00 TS -19.0832 160.263 main 409 393 P_____P__PP___ SH031948 -19.1024 160.255 -1 -19.1024 160.255 -19.1024 160.255 TC -19.0257 160.288 1 8 47
1948011S20157 1948 4 SP MM NOT_NAMED 1948-01-13 06:00:00 TS -18.7700 160.612 bom main 393 379 O_____O__OP___ jtwc_sh SH031948 -18.8000 160.600 -1 -18.8000 160.600 -18.8000 160.600 TC -18.6800 160.646 1 10 46
1948011S20157 1948 4 SP MM NOT_NAMED 1948-01-13 09:00:00 TS -18.3798 161.035 main 379 367 P_____P__PP___ SH031948 -18.4000 161.028 -1 -18.4000 161.028 -18.4000 161.028 TC -18.3193 161.057 1 11 48
1948011S20157 1948 4 SP MM NOT_NAMED 1948-01-13 12:00:00 TS -18.0000 161.500 bom main 367 360 O_____O__OO___ jtwc_sh SH031948 -18.0000 161.500 -1 -18.0000 161.500 -18.0000 161.500 TC -18.0000 161.500 1 11 52
1948011S20157 1948 4 SP MM NOT_NAMED 1948-01-13 15:00:00 TS -17.7005 161.941 main 362 351 P_____P__PP___ SH031948 -17.6974 161.942 -1 -17.6974 161.942 -17.6974 161.942 TC -17.7101 161.935 1 10 60
1948011S20157 1948 4 SP MM NOT_NAMED 1948-01-13 18:00:00 TS -17.4955 162.400 bom main 351 337 O_____O__OP___ jtwc_sh SH031948 -17.5000 162.400 -1 -17.5000 162.400 -17.5000 162.400 TC -17.4822 162.400 1 10 69
1948011S20157 1948 4 SP MM NOT_NAMED 1948-01-13 21:00:00 TS -17.3607 162.886 main 337 321 P_____P__PP___ SH031948 -17.3599 162.885 -1 -17.3599 162.885 -17.3599 162.885 TC -17.3631 162.889 1 10 84
1948011S20157 1948 4 SP MM NOT_NAMED 1948-01-14 00:00:00 TS -17.4000 163.400 bom main 321 291 O_____O__OO___ jtwc_sh SH031948 -17.4000 163.400 -1 -17.4000 163.400 -17.4000 163.400 TC -17.4000 163.400 1 11 107
1948011S20157 1948 4 SP MM NOT_NAMED 1948-01-14 03:00:00 TS -17.6627 163.944 main 280 238 P_____P__PP___ SH031948 -17.6749 163.942 -1 -17.6749 163.942 -17.6749 163.942 TC -17.6259 163.947 1 13 123
1948011S20157 1948 4 SP MM NOT_NAMED 1948-01-14 06:00:00 TS -18.0764 164.503 bom main 238 208 O_____O__OP___ jtwc_sh SH031948 -18.1000 164.500 -1 -18.1000 164.500 -18.1000 164.500 TC -18.0054 164.513 1 14 129
1948011S20157 1948 4 SP MM NOT_NAMED 1948-01-14 09:00:00 TS -18.5161 165.061 main 210 185 P_____P__PP___ SH031948 -18.5274 165.058 -1 -18.5274 165.058 -18.5274 165.058 TC -18.4822 165.073 1 14 132
1948011S20157 1948 4 SP MM NOT_NAMED 1948-01-14 12:00:00 TS -19.0000 165.600 bom main 185 173 O_____O__OO___ jtwc_sh SH031948 -19.0000 165.600 -1 -19.0000 165.600 -19.0000 165.600 TC -19.0000 165.600 1 14 134
1948011S20157 1948 4 SP MM NOT_NAMED 1948-01-14 15:00:00 TS -19.4921 166.119 main 173 167 P_____P__PP___ SH031948 -19.4925 166.130 -1 -19.4925 166.130 -19.4925 166.130 TC -19.4911 166.085 1 14 137
1948011S20157 1948 4 SP MM NOT_NAMED 1948-01-14 18:00:00 TS -20.0018 166.583 bom main 167 139 O_____O__OP___ jtwc_sh SH031948 -20.0000 166.600 -1 -20.0000 166.600 -20.0000 166.600 TC -20.0070 166.532 1 13 142
1948011S20157 1948 4 SP MM NOT_NAMED 1948-01-14 21:00:00 TS -20.5160 166.970 main 145 121 P_____P__PP___ SH031948 -20.5148 166.980 -1 -20.5148 166.980 -20.5148 166.980 TC -20.5194 166.938 1 12 146
1948011S20157 1948 4 SP MM NOT_NAMED 1948-01-15 00:00:00 TS -21.0000 167.300 bom main 121 106 O_____O__OO___ jtwc_sh SH031948 -21.0000 167.300 -1 -21.0000 167.300 -21.0000 167.300 TC -21.0000 167.300 1 11 146
1948011S20157 1948 4 SP MM NOT_NAMED 1948-01-15 03:00:00 TS -21.4204 167.615 main 106 98 P_____P__PP___ SH031948 -21.4224 167.615 -1 -21.4224 167.615 -21.4224 167.615 TC -21.4143 167.615 1 10 145
1948011S20157 1948 4 SP MM NOT_NAMED 1948-01-15 06:00:00 TS -21.7985 167.897 bom main 102 98 O_____O__OP___ jtwc_sh SH031948 -21.8000 167.900 -1 -21.8000 167.900 -21.8000 167.900 TC -21.7941 167.889 1 9 146
1948011S20157 1948 4 SP MM NOT_NAMED 1948-01-15 09:00:00 TS -22.1560 168.149 main 113 113 P_____P__PP___ SH031948 -22.1574 168.150 -1 -22.1574 168.150 -22.1574 168.150 TC -22.1519 168.143 1 8 147
1948011S20157 1948 4 SP MM NOT_NAMED 1948-01-15 12:00:00 TS -22.5000 168.400 bom main 145 145 O_____O__OO___ jtwc_sh SH031948 -22.5000 168.400 -1 -22.5000 168.400 -22.5000 168.400 TC -22.5000 168.400 1 9 144
1948011S20157 1948 4 SP MM NOT_NAMED 1948-01-15 15:00:00 TS -22.8496 168.689 main 183 183 P_____P__PP___ SH031948 -22.8500 168.693 -1 -22.8500 168.693 -22.8500 168.693 TC -22.8484 168.677 1 9 142
1948011S20157 1948 4 SP MM NOT_NAMED 1948-01-15 18:00:00 TS -23.1996 168.993 bom main 228 228 O_____O__OP___ jtwc_sh SH031948 -23.2000 169.000 -1 -23.2000 169.000 -23.2000 169.000 TC -23.1984 168.973 1 9 141
1948011S20157 1948 4 SP MM NOT_NAMED 1948-01-15 21:00:00 TS -23.5499 169.297 main 271 271 P_____P__PP___ SH031948 -23.5501 169.302 -1 -23.5501 169.302 -23.5501 169.302 TC -23.5492 169.283 1 9 142
1948011S20157 1948 4 SP MM NOT_NAMED 1948-01-16 00:00:00 TS -23.9000 169.600 bom main 320 O_____O__OO___ jtwc_sh SH031948 -23.9000 169.600 -1 -23.9000 169.600 -23.9000 169.600 TC -23.9000 169.600 1 9 142

デジタル台風データ・検索

IBTrACS Databaseについて

本データベースは、米国NOAAが公開する1842年以降の世界の熱帯低気圧のベストトラックデータアーカイブInternational Best Track Archive for Climate Stewardship (IBTrACS)を、ウェブで閲覧しやすい形式に変換したものです。

最終更新日:2021-12-03